Time;durP1;ratioP1;P1;durP2;ratioP2;P2;SDS_P1;SDS_P2;PMS_P1;PMS_P2;Temp;Humidity;BMP_temperature;BMP_pressure;BME280_temperature;BME280_humidity;BME280_pressure;Samples;Min_cycle;Max_cycle;Signal;HPM_P1;HPM_P2
2023/07/10 00:02:22;;;;;;;11.00;3.45;;;23.10;99.90;;;;;;4935401;29;20031;-80
2023/07/10 00:04:48;;;;;;;4.63;2.15;;;23.10;1.00;;;;;;4935929;29;20031;-80
2023/07/10 00:07:14;;;;;;;5.07;2.88;;;23.00;1.00;;;;;;4918278;29;20108;-81
2023/07/10 00:09:40;;;;;;;3.63;2.50;;;22.90;1.00;;;;;;4934652;29;20040;-80
2023/07/10 00:12:16;;;;;;;6.82;2.53;;;22.70;1.00;;;;;;4935296;29;20035;-81
2023/07/10 00:14:42;;;;;;;7.72;2.33;;;22.60;1.00;;;;;;4935973;29;20348;-80
2023/07/10 00:17:15;;;;;;;6.80;2.97;;;22.50;1.00;;;;;;4934760;29;20035;-80
2023/07/10 00:19:41;;;;;;;5.53;2.25;;;22.50;1.00;;;;;;4933304;29;20442;-80
2023/07/10 00:22:07;;;;;;;5.10;2.80;;;22.50;1.00;;;;;;4934536;29;20023;-80
2023/07/10 00:24:33;;;;;;;5.22;2.67;;;22.50;1.00;;;;;;4934895;29;20044;-81
2023/07/10 00:26:59;;;;;;;4.63;2.45;;;22.40;1.00;;;;;;4934757;29;20478;-80
2023/07/10 00:29:31;;;;;;;6.97;3.08;;;22.50;1.00;;;;;;4933053;29;20419;-81
2023/07/10 00:32:17;;;;;;;4.72;2.40;;;22.50;1.00;;;;;;4934545;29;20462;-81
2023/07/10 00:34:43;;;;;;;5.95;2.90;;;22.40;1.00;;;;;;4934269;29;20044;-81
2023/07/10 00:37:10;;;;;;;4.43;2.95;;;22.40;1.00;;;;;;4934102;29;20032;-80
2023/07/10 00:39:37;;;;;;;11.13;2.83;;;22.30;1.00;;;;;;4933588;29;20392;-79
2023/07/10 00:42:17;;;;;;;10.93;2.78;;;22.20;1.00;;;;;;4916383;29;20039;-81
2023/07/10 00:44:51;;;;;;;5.20;2.80;;;22.00;1.00;;;;;;4934615;29;20047;-80
2023/07/10 00:47:26;;;;;;;9.50;2.42;;;21.90;1.00;;;;;;4932278;29;20032;-80
2023/07/10 00:49:59;;;;;;;4.25;3.30;;;21.80;1.00;;;;;;4931945;29;20043;-80
2023/07/10 00:52:46;;;;;;;4.55;2.90;;;21.80;1.00;;;;;;4933311;29;20055;-81
2023/07/10 00:55:15;;;;;;;7.55;3.20;;;21.70;1.00;;;;;;4933574;29;20475;-80
2023/07/10 00:57:43;;;;;;;4.13;2.17;;;21.70;1.00;;;;;;4933677;29;20036;-80
2023/07/10 01:00:31;;;;;;;4.88;2.55;;;21.70;1.00;;;;;;4933205;29;20046;-80
2023/07/10 01:02:57;;;;;;;3.65;2.15;;;21.50;1.00;;;;;;4916328;29;20035;-81
2023/07/10 01:05:25;;;;;;;6.75;2.95;;;21.40;1.00;;;;;;4934386;29;20442;-81
2023/07/10 01:07:57;;;;;;;6.07;3.00;;;21.50;1.00;;;;;;4933166;29;20028;-80
2023/07/10 01:10:24;;;;;;;5.70;2.70;;;21.60;1.00;;;;;;4933487;29;20028;-80
2023/07/10 01:12:51;;;;;;;4.95;2.72;;;21.60;1.00;;;;;;4933992;29;20451;-79
2023/07/10 01:15:17;;;;;;;4.78;3.03;;;21.50;1.00;;;;;;4932825;29;20036;-81
2023/07/10 01:17:46;;;;;;;6.30;2.85;;;21.40;1.00;;;;;;4932855;29;20031;-80
2023/07/10 01:20:43;;;;;;;5.13;3.30;;;21.40;1.00;;;;;;4932534;29;20048;-80
2023/07/10 01:23:10;;;;;;;5.18;3.05;;;21.50;1.00;;;;;;4931935;29;20483;-80
2023/07/10 01:25:43;;;;;;;5.88;2.58;;;21.40;1.00;;;;;;4933323;29;20031;-79
2023/07/10 01:28:16;;;;;;;4.10;2.78;;;21.40;1.00;;;;;;4932387;29;20051;-80
2023/07/10 01:30:44;;;;;;;9.40;3.13;;;21.40;1.00;;;;;;4933713;29;20582;-80
2023/07/10 01:33:17;;;;;;;6.80;3.25;;;21.30;1.00;;;;;;4932845;29;20031;-81
2023/07/10 01:35:46;;;;;;;4.85;2.83;;;21.20;1.00;;;;;;4942821;29;20023;-80
2023/07/10 01:38:14;;;;;;;;;;;21.20;1.00;;;;;;4916430;29;20048;-81
2023/07/10 01:40:43;;;;;;;3.65;2.33;;;21.10;1.00;;;;;;4934969;29;19917;-79
2023/07/10 01:43:10;;;;;;;4.78;2.42;;;21.20;1.00;;;;;;4934090;29;20370;-80
2023/07/10 01:45:45;;;;;;;8.38;3.35;;;21.10;1.00;;;;;;4937249;29;20104;-79
2023/07/10 01:48:13;;;;;;;5.32;3.28;;;21.20;1.00;;;;;;4932364;29;20031;-79
2023/07/10 01:50:40;;;;;;;5.05;3.03;;;21.20;1.00;;;;;;4933907;29;20035;-80
2023/07/10 01:53:08;;;;;;;5.20;2.75;;;21.10;1.00;;;;;;4914990;29;20044;-80
2023/07/10 01:55:44;;;;;;;6.43;3.47;;;21.00;1.00;;;;;;4931858;29;20039;-81
2023/07/10 01:58:12;;;;;;;4.63;2.92;;;20.90;1.00;;;;;;4931366;29;20051;-81
2023/07/10 02:00:40;;;;;;;6.35;3.35;;;20.70;7.20;;;;;;4913280;29;20066;-79
2023/07/10 02:03:07;;;;;;;4.00;2.33;;;20.70;13.00;;;;;;4933590;29;20046;-80
2023/07/10 02:05:33;;;;;;;5.57;3.22;;;20.60;19.80;;;;;;4933174;29;20051;-79
2023/07/10 02:07:59;;;;;;;5.60;2.78;;;20.60;23.00;;;;;;4932766;29;20043;-79
2023/07/10 02:10:25;;;;;;;5.13;3.20;;;20.70;24.10;;;;;;4932932;29;20050;-78
2023/07/10 02:12:51;;;;;;;6.60;3.55;;;20.70;23.90;;;;;;4933476;29;20041;-79
2023/07/10 02:15:17;;;;;;;5.97;3.30;;;20.70;16.80;;;;;;4933349;29;20055;-81
2023/07/10 02:17:43;;;;;;;8.13;3.78;;;20.80;15.30;;;;;;4932318;29;20036;-79
2023/07/10 02:20:10;;;;;;;5.07;2.97;;;20.80;9.90;;;;;;4932417;29;20050;-81
2023/07/10 02:22:36;;;;;;;5.60;2.58;;;20.70;25.20;;;;;;4932645;29;20042;-80
2023/07/10 02:25:02;;;;;;;6.30;2.85;;;20.60;30.30;;;;;;4933725;29;20048;-80
2023/07/10 02:27:28;;;;;;;5.78;3.08;;;20.60;39.10;;;;;;4932499;29;20466;-81
2023/07/10 02:29:54;;;;;;;6.70;4.10;;;20.50;39.10;;;;;;4932470;29;20035;-81
2023/07/10 02:32:21;;;;;;;4.72;2.88;;;20.40;54.50;;;;;;4932634;29;20032;-81
2023/07/10 02:34:47;;;;;;;6.70;3.30;;;20.40;57.80;;;;;;4907244;29;20084;-81
2023/07/10 02:37:13;;;;;;;6.82;4.03;;;20.60;46.00;;;;;;4931803;29;20526;-82
2023/07/10 02:39:40;;;;;;;5.55;3.88;;;20.60;36.50;;;;;;4931706;29;20048;-81
2023/07/10 02:42:06;;;;;;;8.00;2.75;;;20.70;36.80;;;;;;4933396;29;20039;-80
2023/07/10 02:44:32;;;;;;;3.88;2.63;;;20.70;43.80;;;;;;4935064;29;20032;-80
2023/07/10 02:46:58;;;;;;;4.65;3.17;;;20.50;56.90;;;;;;4936967;29;20427;-80
2023/07/10 02:49:24;;;;;;;6.13;3.58;;;20.50;99.90;;;;;;4934915;29;20024;-81
2023/07/10 02:51:51;;;;;;;5.32;2.75;;;20.60;99.90;;;;;;4936481;29;20023;-81
2023/07/10 02:54:17;;;;;;;9.10;3.10;;;20.70;99.90;;;;;;4935852;29;20389;-81
2023/07/10 02:56:43;;;;;;;4.38;2.83;;;20.80;99.90;;;;;;4936544;29;20035;-81
2023/07/10 02:59:09;;;;;;;5.53;3.67;;;20.90;99.90;;;;;;4935431;29;20393;-81
2023/07/10 03:01:35;;;;;;;8.27;3.55;;;21.00;99.90;;;;;;4919572;29;20042;-80
2023/07/10 03:04:01;;;;;;;13.70;5.75;;;21.10;99.90;;;;;;4935857;29;20032;-80
2023/07/10 03:06:27;;;;;;;11.80;5.13;;;21.30;99.90;;;;;;4935114;29;20039;-81
2023/07/10 03:08:54;;;;;;;10.13;5.10;;;20.40;1.00;;;;;;4934995;29;20032;-80
2023/07/10 03:11:22;;;;;;;6.93;4.47;;;19.10;99.90;;;;;;4936392;29;20032;-83
2023/07/10 03:13:48;;;;;;;9.13;6.00;;;18.90;99.90;;;;;;4936771;29;20040;-81
2023/07/10 03:16:17;;;;;;;10.45;5.70;;;18.90;99.90;;;;;;4936506;29;20043;-83
2023/07/10 03:18:43;;;;;;;8.73;5.85;;;19.10;1.00;;;;;;4935439;29;20062;-80
2023/07/10 03:21:10;;;;;;;11.55;7.32;;;19.00;1.00;;;;;;4936044;29;20023;-80
2023/07/10 03:23:36;;;;;;;15.40;7.40;;;19.00;1.00;;;;;;4936060;29;20040;-80
2023/07/10 03:26:02;;;;;;;9.30;6.85;;;19.00;1.00;;;;;;4936784;29;20047;-81
2023/07/10 03:28:30;;;;;;;12.73;8.20;;;18.80;1.00;;;;;;4935021;29;20038;-81
2023/07/10 03:30:58;;;;;;;12.45;8.50;;;18.90;1.00;;;;;;4936175;29;20486;-79
2023/07/10 03:33:24;;;;;;;15.18;9.25;;;19.10;13.30;;;;;;4935562;29;20028;-80
2023/07/10 03:35:58;;;;;;;14.68;9.32;;;19.20;33.50;;;;;;4936006;29;20690;-81
2023/07/10 03:38:24;;;;;;;13.65;8.82;;;19.00;46.20;;;;;;4935087;29;20023;-80
2023/07/10 03:40:52;;;;;;;14.00;7.97;;;18.90;74.80;;;;;;4936084;29;20031;-80
2023/07/10 03:43:19;;;;;;;12.35;8.20;;;18.70;92.60;;;;;;4940087;29;20024;-80
2023/07/10 03:45:45;;;;;;;13.38;8.43;;;18.70;97.60;;;;;;4936560;29;20035;-79
2023/07/10 03:48:11;;;;;;;16.65;10.20;;;18.80;99.90;;;;;;4935409;29;20031;-81
2023/07/10 03:50:37;;;;;;;16.38;9.60;;;18.90;99.90;;;;;;4936641;29;20031;-80
2023/07/10 03:53:04;;;;;;;22.70;11.27;;;19.00;99.90;;;;;;4937061;29;20039;-80
2023/07/10 03:55:30;;;;;;;14.07;9.70;;;19.20;99.90;;;;;;4933858;29;20050;-80
2023/07/10 03:57:56;;;;;;;16.23;9.93;;;19.00;99.90;;;;;;4934963;29;20039;-80
2023/07/10 04:00:22;;;;;;;15.65;9.65;;;19.00;99.90;;;;;;4934699;29;20502;-82
2023/07/10 04:02:51;;;;;;;13.55;10.10;;;18.80;99.90;;;;;;4935392;29;20032;-81
2023/07/10 04:05:17;;;;;;;14.45;10.48;;;18.80;99.90;;;;;;4916066;29;20046;-83
2023/07/10 04:07:43;;;;;;;17.42;12.10;;;18.80;99.90;;;;;;4932920;29;20466;-80
2023/07/10 04:10:10;;;;;;;17.77;11.13;;;18.80;99.90;;;;;;4933985;29;20070;-80
2023/07/10 04:12:40;;;;;;;36.40;12.50;;;18.90;99.90;;;;;;4936855;29;21078;-81
2023/07/10 04:15:07;;;;;;;19.08;11.35;;;19.00;99.90;;;;;;4933605;29;20042;-80
2023/07/10 04:17:33;;;;;;;20.67;14.32;;;19.10;99.90;;;;;;4935719;29;20036;-79
2023/07/10 04:19:59;;;;;;;25.45;13.68;;;19.30;99.90;;;;;;4934405;29;20157;-80
2023/07/10 04:22:25;;;;;;;20.63;13.52;;;19.30;99.90;;;;;;4934216;29;20027;-81
2023/07/10 04:24:51;;;;;;;26.92;13.32;;;19.30;99.90;;;;;;4934635;29;20050;-81
2023/07/10 04:27:17;;;;;;;20.05;11.85;;;19.30;99.90;;;;;;4934059;29;20055;-83
2023/07/10 04:29:44;;;;;;;16.55;10.93;;;19.60;99.90;;;;;;4934249;29;20039;-81
2023/07/10 04:32:10;;;;;;;20.98;11.38;;;19.50;99.90;;;;;;4934722;29;20039;-82
2023/07/10 04:34:36;;;;;;;17.40;11.52;;;19.80;99.90;;;;;;4934036;29;20584;-81
2023/07/10 04:37:02;;;;;;;20.70;13.52;;;19.80;99.90;;;;;;4934122;29;20036;-80
2023/07/10 04:39:29;;;;;;;23.70;14.80;;;20.10;99.90;;;;;;4932092;29;20036;-81
2023/07/10 04:41:55;;;;;;;18.90;12.30;;;20.80;99.90;;;;;;4934043;29;20382;-80
2023/07/10 04:44:21;;;;;;;13.77;8.80;;;20.60;99.90;;;;;;4933486;29;20042;-80
2023/07/10 04:46:47;;;;;;;11.73;8.63;;;20.20;99.90;;;;;;4929442;29;20389;-80
2023/07/10 04:49:13;;;;;;;10.57;8.25;;;20.20;99.90;;;;;;4930555;29;20039;-83
2023/07/10 04:51:39;;;;;;;11.40;7.90;;;19.80;99.90;;;;;;4932020;29;20032;-84
2023/07/10 04:54:05;;;;;;;12.15;8.32;;;19.70;99.90;;;;;;4932048;29;20047;-83
2023/07/10 04:56:31;;;;;;;13.57;8.57;;;19.70;99.90;;;;;;4933032;29;20153;-84
2023/07/10 04:58:58;;;;;;;13.85;8.98;;;20.00;99.90;;;;;;4933633;29;20051;-84
2023/07/10 05:01:28;;;;;;;14.10;8.65;;;19.70;99.90;;;;;;4933955;29;20027;-84
2023/07/10 05:03:55;;;;;;;11.17;8.10;;;19.60;99.90;;;;;;4934399;29;20023;-85
2023/07/10 05:06:21;;;;;;;14.55;10.10;;;19.50;99.90;;;;;;4939120;29;20031;-87
2023/07/10 05:08:47;;;;;;;12.95;8.75;;;19.60;99.90;;;;;;4937465;29;20043;-87
2023/07/10 05:11:14;;;;;;;15.75;9.65;;;19.60;99.90;;;;;;4936493;29;20035;-86
2023/07/10 05:13:40;;;;;;;12.55;9.43;;;19.70;99.90;;;;;;4936779;29;20457;-85
2023/07/10 05:16:07;;;;;;;13.25;8.73;;;19.80;99.90;;;;;;4935935;29;20047;-85
2023/07/10 05:18:33;;;;;;;9.48;7.90;;;19.70;99.90;;;;;;4932630;29;20035;-80
2023/07/10 05:20:59;;;;;;;15.18;9.45;;;19.80;99.90;;;;;;4933655;29;20032;-82
2023/07/10 05:23:26;;;;;;;12.40;7.60;;;19.70;99.90;;;;;;4932768;29;20455;-83
2023/07/10 05:26:10;;;;;;;11.10;7.57;;;19.80;99.90;;;;;;4934060;29;20042;-83
2023/07/10 05:28:37;;;;;;;10.93;7.50;;;19.90;99.90;;;;;;4932294;29;20031;-82
2023/07/10 05:31:06;;;;;;;8.90;7.03;;;20.10;99.90;;;;;;4934116;29;20367;-83
2023/07/10 05:33:33;;;;;;;8.40;6.72;;;20.50;99.90;;;;;;4933317;29;20035;-84
2023/07/10 05:36:02;;;;;;;9.43;7.38;;;20.80;99.90;;;;;;4933579;29;20463;-83
2023/07/10 05:38:30;;;;;;;7.80;5.70;;;21.00;99.90;;;;;;4931464;29;20039;-83
2023/07/10 05:40:57;;;;;;;9.52;6.13;;;20.90;99.90;;;;;;4932213;29;20058;-83
2023/07/10 05:43:23;;;;;;;7.38;5.40;;;21.20;99.90;;;;;;4933830;29;20039;-84
2023/07/10 05:45:51;;;;;;;7.20;5.43;;;21.40;99.90;;;;;;4934355;29;20043;-84
2023/07/10 05:48:17;;;;;;;6.60;5.20;;;21.80;99.90;;;;;;4933359;29;20039;-83
2023/07/10 05:50:45;;;;;;;7.22;4.20;;;22.10;99.90;;;;;;4932201;29;20039;-83
2023/07/10 05:53:11;;;;;;;6.82;4.72;;;22.30;99.90;;;;;;4933523;29;20048;-83
2023/07/10 05:55:46;;;;;;;7.00;4.13;;;22.20;99.90;;;;;;4933564;29;20043;-84
2023/07/10 05:58:13;;;;;;;7.07;4.38;;;21.90;99.90;;;;;;4933048;29;20039;-83
2023/07/10 06:00:41;;;;;;;7.63;4.10;;;22.10;99.90;;;;;;4933055;29;20467;-83
2023/07/10 06:03:07;;;;;;;8.27;3.95;;;22.10;99.90;;;;;;4933424;29;20471;-82
2023/07/10 06:05:33;;;;;;;5.93;4.22;;;22.30;99.90;;;;;;4928669;29;20032;-83
2023/07/10 06:07:59;;;;;;;8.48;4.70;;;22.60;99.90;;;;;;4930328;29;20459;-83
2023/07/10 06:10:25;;;;;;;4.85;3.63;;;22.70;99.90;;;;;;4931747;29;20047;-82
2023/07/10 06:12:52;;;;;;;7.03;4.63;;;22.80;99.90;;;;;;4931053;29;20035;-82
2023/07/10 06:15:18;;;;;;;8.65;6.13;;;23.20;99.90;;;;;;4932148;29;20363;-81
2023/07/10 06:17:44;;;;;;;9.40;6.85;;;23.10;99.90;;;;;;4931108;29;20039;-82
2023/07/10 06:20:11;;;;;;;8.73;6.70;;;23.10;99.90;;;;;;4936861;29;20046;-83
2023/07/10 06:22:37;;;;;;;10.32;8.10;;;23.10;99.90;;;;;;4936771;29;20367;-82
2023/07/10 06:25:03;;;;;;;10.23;7.93;;;22.80;99.90;;;;;;4936565;29;20028;-81
2023/07/10 06:27:29;;;;;;;9.65;8.30;;;22.70;99.90;;;;;;4935750;29;20031;-83
2023/07/10 06:29:56;;;;;;;10.40;8.32;;;23.10;99.90;;;;;;4937405;29;20038;-83
2023/07/10 06:32:25;;;;;;;11.48;8.52;;;22.90;99.90;;;;;;4937677;29;20032;-83
2023/07/10 06:34:51;;;;;;;8.85;7.22;;;22.70;99.90;;;;;;4938250;29;20364;-83
2023/07/10 06:37:17;;;;;;;10.90;8.75;;;23.30;99.90;;;;;;4942941;29;20038;-86
2023/07/10 06:39:44;;;;;;;10.30;8.23;;;23.10;99.90;;;;;;4941972;29;20247;-86
2023/07/10 06:42:10;;;;;;;10.25;7.93;;;23.20;99.90;;;;;;4937558;29;20561;-83
2023/07/10 06:44:36;;;;;;;11.35;8.15;;;23.40;99.90;;;;;;4938876;29;20032;-84
2023/07/10 06:47:02;;;;;;;14.75;8.95;;;23.40;99.90;;;;;;4936766;29;20035;-84
2023/07/10 06:49:28;;;;;;;10.25;8.48;;;23.50;99.90;;;;;;4936267;29;20035;-84
2023/07/10 06:51:54;;;;;;;10.02;8.68;;;23.90;99.90;;;;;;4937329;29;20055;-90
2023/07/10 06:54:20;;;;;;;11.13;8.35;;;24.10;99.90;;;;;;4934698;29;20055;-86
2023/07/10 06:56:46;;;;;;;11.43;8.40;;;24.40;99.90;;;;;;4932858;29;20031;-86
2023/07/10 06:59:13;;;;;;;11.23;7.63;;;25.20;99.90;;;;;;4934245;29;20490;-87
2023/07/10 07:01:39;;;;;;;9.13;7.30;;;25.60;99.90;;;;;;4941968;29;20084;-87
2023/07/10 07:04:05;;;;;;;8.77;7.30;;;26.00;34.40;;;;;;4935417;29;20478;-87
2023/07/10 07:06:31;;;;;;;12.07;9.25;;;25.80;1.00;;;;;;4914618;29;20040;-85
2023/07/10 07:08:57;;;;;;;10.77;9.18;;;25.90;1.00;;;;;;4935040;29;20032;-84
2023/07/10 07:11:23;;;;;;;8.75;7.35;;;25.90;99.90;;;;;;4936169;29;20035;-86
2023/07/10 07:13:49;;;;;;;12.05;8.65;;;25.90;99.90;;;;;;4936489;29;20032;-87
2023/07/10 07:16:16;;;;;;;10.85;8.43;;;25.90;99.90;;;;;;4920268;29;20032;-85
2023/07/10 07:18:42;;;;;;;9.52;7.32;;;26.50;99.90;;;;;;4935940;29;20324;-86
2023/07/10 07:21:13;;;;;;;11.25;8.13;;;26.30;99.90;;;;;;4937325;29;20459;-86
2023/07/10 07:23:39;;;;;;;10.45;8.85;;;26.20;99.90;;;;;;4948851;29;20046;-87
2023/07/10 07:26:05;;;;;;;11.40;7.60;;;26.70;94.50;;;;;;4957347;29;20030;-86
2023/07/10 07:28:31;;;;;;;11.15;7.30;;;26.40;75.30;;;;;;4955816;29;20030;-86
2023/07/10 07:31:05;;;;;;;11.05;8.25;;;26.20;25.20;;;;;;4947758;29;20039;-84
2023/07/10 07:33:31;;;;;;;10.55;6.70;;;26.40;55.50;;;;;;4938547;29;20035;-84
2023/07/10 07:36:00;;;;;;;11.52;7.10;;;27.00;1.00;;;;;;4938326;29;20047;-86
2023/07/10 07:38:29;;;;;;;10.77;8.50;;;26.90;1.00;;;;;;4918450;29;20047;-86
2023/07/10 07:40:59;;;;;;;11.85;8.50;;;26.50;1.00;;;;;;4936173;29;20040;-87
2023/07/10 07:43:25;;;;;;;10.35;8.05;;;26.40;1.00;;;;;;4936179;29;20039;-85
2023/07/10 07:45:56;;;;;;;12.15;8.35;;;26.90;1.00;;;;;;4934934;29;20040;-85
2023/07/10 07:48:23;;;;;;;10.30;8.15;;;28.00;1.00;;;;;;4934746;29;20034;-85
2023/07/10 07:51:02;;;;;;;11.00;7.88;;;28.50;1.00;;;;;;4935448;29;20035;-87
2023/07/10 07:53:30;;;;;;;10.63;9.30;;;28.10;99.90;;;;;;4915828;29;20414;-85
2023/07/10 07:55:56;;;;;;;12.13;9.73;;;27.50;1.00;;;;;;4935583;29;20038;-85
2023/07/10 07:58:23;;;;;;;10.98;9.23;;;27.30;99.90;;;;;;4934991;29;20378;-84
2023/07/10 08:00:49;;;;;;;13.38;10.52;;;27.50;99.90;;;;;;4936425;29;20040;-84
2023/07/10 08:03:16;;;;;;;12.75;9.75;;;27.80;99.90;;;;;;4936068;29;20030;-85
2023/07/10 08:05:42;;;;;;;14.10;9.57;;;27.20;1.00;;;;;;4934595;29;20031;-83
2023/07/10 08:08:13;;;;;;;15.23;10.73;;;26.70;1.00;;;;;;4934582;29;20034;-84
2023/07/10 08:10:46;;;;;;;13.93;9.90;;;26.80;1.00;;;;;;4934312;29;20038;-86
2023/07/10 08:13:13;;;;;;;11.63;9.32;;;27.50;99.90;;;;;;4935456;29;20038;-84
2023/07/10 08:15:39;;;;;;;14.25;10.73;;;27.80;99.90;;;;;;4934930;29;20035;-83
2023/07/10 08:18:06;;;;;;;13.85;10.85;;;27.90;99.90;;;;;;4934422;29;20028;-85
2023/07/10 08:20:33;;;;;;;13.55;10.45;;;27.60;99.90;;;;;;4935830;29;20459;-85
2023/07/10 08:23:02;;;;;;;13.88;9.48;;;27.70;99.90;;;;;;4935178;29;20039;-84
2023/07/10 08:25:28;;;;;;;17.80;10.48;;;28.10;99.90;;;;;;4935380;29;20042;-86
2023/07/10 08:27:54;;;;;;;16.25;10.52;;;28.40;99.90;;;;;;4933556;29;20051;-83
2023/07/10 08:30:20;;;;;;;11.25;9.35;;;28.30;99.90;;;;;;4934946;29;20038;-83
2023/07/10 08:32:46;;;;;;;14.43;10.00;;;28.10;99.90;;;;;;4934443;29;20051;-84
2023/07/10 08:35:12;;;;;;;10.15;8.40;;;27.60;99.90;;;;;;4935495;29;20367;-85
2023/07/10 08:37:39;;;;;;;13.52;9.32;;;27.70;99.90;;;;;;4933614;29;20039;-83
2023/07/10 08:40:10;;;;;;;11.50;8.45;;;28.30;99.90;;;;;;4933390;29;20502;-83
2023/07/10 08:42:36;;;;;;;11.82;9.30;;;28.80;99.90;;;;;;4933989;29;20447;-85
2023/07/10 08:45:03;;;;;;;13.25;8.95;;;30.10;99.90;;;;;;4934124;29;20035;-83
2023/07/10 08:47:40;;;;;;;10.35;8.88;;;29.10;99.90;;;;;;4933959;29;20027;-85
2023/07/10 08:50:22;;;;;;;12.27;8.90;;;28.80;99.90;;;;;;4934441;29;20035;-84
2023/07/10 08:53:09;;;;;;;14.75;9.20;;;28.00;99.90;;;;;;4934367;29;20036;-82
2023/07/10 08:55:58;;;;;;;9.57;8.13;;;29.00;99.90;;;;;;4916375;29;20147;-84
2023/07/10 08:58:28;;;;;;;16.17;9.10;;;29.40;99.90;;;;;;4939551;29;20379;-83
2023/07/10 09:00:59;;;;;;;10.70;8.07;;;30.20;99.90;;;;;;4941108;29;20048;-84
2023/07/10 09:03:34;;;;;;;9.38;8.35;;;30.50;99.90;;;;;;4940943;29;20032;-84
2023/07/10 09:06:01;;;;;;;13.02;9.32;;;29.60;99.90;;;;;;4940860;29;20031;-82
2023/07/10 09:08:31;;;;;;;10.15;7.90;;;28.70;99.90;;;;;;4934838;29;20355;-83
2023/07/10 09:11:03;;;;;;;9.18;6.90;;;28.40;99.90;;;;;;4934485;29;20367;-83
2023/07/10 09:13:39;;;;;;;9.65;7.20;;;28.20;99.90;;;;;;4936508;29;20047;-83
2023/07/10 09:16:17;;;;;;;9.88;8.20;;;28.30;99.90;;;;;;4934762;29;20383;-83
2023/07/10 09:18:51;;;;;;;9.77;8.55;;;27.90;99.90;;;;;;4914901;29;20488;-82
2023/07/10 09:21:19;;;;;;;12.43;9.30;;;27.70;99.90;;;;;;4934087;29;20051;-84
2023/07/10 09:23:47;;;;;;;10.63;8.90;;;28.40;99.90;;;;;;4933185;29;20039;-83
2023/07/10 09:26:21;;;;;;;10.65;7.25;;;28.50;99.90;;;;;;4933029;29;20038;-83
2023/07/10 09:29:20;;;;;;;9.63;7.00;;;29.20;99.90;;;;;;4937123;29;20035;-82
2023/07/10 09:31:56;;;;;;;7.53;6.78;;;30.70;82.90;;;;;;4933833;29;20474;-82
2023/07/10 09:34:27;;;;;;;7.43;6.55;;;31.70;41.90;;;;;;4933611;29;20042;-83
2023/07/10 09:36:56;;;;;;;5.95;5.22;;;31.70;40.20;;;;;;4946132;29;20055;-82
2023/07/10 09:39:30;;;;;;;6.85;5.80;;;30.90;50.00;;;;;;4935719;29;20027;-85
2023/07/10 09:42:02;;;;;;;8.50;6.07;;;29.80;99.50;;;;;;4934320;29;20035;-84
2023/07/10 09:44:37;;;;;;;8.90;6.03;;;29.00;99.90;;;;;;4935404;29;20386;-83
2023/07/10 09:47:13;;;;;;;6.97;4.63;;;29.30;99.90;;;;;;4933897;29;20506;-83
2023/07/10 09:49:49;;;;;;;9.68;6.03;;;29.20;99.90;;;;;;4933192;29;20035;-82
2023/07/10 09:52:30;;;;;;;8.35;5.53;;;28.90;99.90;;;;;;4911379;29;20487;-81
2023/07/10 09:55:08;;;;;;;8.65;5.75;;;29.60;99.90;;;;;;4942883;29;20043;-83
2023/07/10 09:58:02;;;;;;;6.32;5.30;;;29.70;91.30;;;;;;4942569;29;20347;-82
2023/07/10 10:00:29;;;;;;;8.65;5.40;;;29.20;99.90;;;;;;4934493;29;20402;-85
2023/07/10 10:03:09;;;;;;;10.18;4.55;;;29.70;99.90;;;;;;4936992;29;20043;-82
2023/07/10 10:05:40;;;;;;;8.90;5.15;;;29.50;94.50;;;;;;4937475;29;20047;-81
2023/07/10 10:08:24;;;;;;;6.30;4.70;;;29.50;96.40;;;;;;4936002;29;20039;-80
2023/07/10 10:11:08;;;;;;;13.75;5.63;;;30.10;99.90;;;;;;4916998;29;20040;-82
2023/07/10 10:13:56;;;;;;;6.32;5.07;;;29.80;73.50;;;;;;4935451;29;20494;-82
2023/07/10 10:16:51;;;;;;;7.68;5.15;;;28.90;99.90;;;;;;4939990;29;20031;-82
2023/07/10 10:19:33;;;;;;;5.78;4.78;;;29.90;77.80;;;;;;4930956;29;20356;-83
2023/07/10 10:21:59;;;;;;;8.68;5.15;;;30.20;74.10;;;;;;4937226;29;20382;-81
2023/07/10 10:24:29;;;;;;;6.75;4.72;;;30.60;68.90;;;;;;4937104;29;20034;-83
2023/07/10 10:27:13;;;;;;;4.93;4.22;;;31.60;22.50;;;;;;4935316;29;20538;-84
2023/07/10 10:29:57;;;;;;;6.00;4.88;;;32.30;1.00;;;;;;4934836;29;20038;-83
2023/07/10 10:32:39;;;;;;;8.55;4.32;;;32.40;1.00;;;;;;4937538;29;20040;-84
2023/07/10 10:35:08;;;;;;;11.57;4.15;;;32.70;1.00;;;;;;4936324;29;20035;-82
2023/07/10 10:37:39;;;;;;;5.85;3.78;;;32.50;10.10;;;;;;4936441;29;20471;-82
2023/07/10 10:40:32;;;;;;;5.32;3.90;;;31.90;1.00;;;;;;4937384;29;20062;-82
2023/07/10 10:43:29;;;;;;;5.97;3.75;;;32.20;1.00;;;;;;4935905;29;20027;-82
2023/07/10 10:46:14;;;;;;;6.82;3.40;;;31.90;1.00;;;;;;4935959;29;20031;-81
2023/07/10 10:48:46;;;;;;;6.78;3.38;;;31.30;1.00;;;;;;4933952;29;20039;-81
2023/07/10 10:51:27;;;;;;;6.72;3.20;;;31.20;1.00;;;;;;4937019;29;20028;-83
2023/07/10 10:54:19;;;;;;;6.40;3.60;;;31.00;10.60;;;;;;4936994;29;20048;-83
2023/07/10 10:57:04;;;;;;;5.47;2.90;;;31.20;1.00;;;;;;4934100;29;20135;-83
2023/07/10 10:59:37;;;;;;;6.95;3.47;;;31.80;1.00;;;;;;4937238;29;20028;-83
2023/07/10 11:02:37;;;;;;;6.78;3.03;;;32.20;1.00;;;;;;4936380;29;20032;-83
2023/07/10 11:05:39;;;;;;;7.07;3.42;;;31.70;1.00;;;;;;4934738;29;20422;-81
2023/07/10 11:08:41;;;;;;;6.50;3.05;;;30.90;1.00;;;;;;4922431;29;20036;-82
2023/07/10 11:11:22;;;;;;;6.13;3.03;;;30.80;1.00;;;;;;4935763;29;20067;-81
2023/07/10 11:13:49;;;;;;;9.50;3.33;;;31.20;1.00;;;;;;4934586;29;20343;-81
2023/07/10 11:16:15;;;;;;;5.85;4.15;;;31.20;1.00;;;;;;4935272;29;20031;-81
2023/07/10 11:18:41;;;;;;;6.72;3.88;;;30.50;13.20;;;;;;4934439;29;20028;-82
2023/07/10 11:21:08;;;;;;;5.32;3.67;;;30.00;28.50;;;;;;4936735;29;20048;-82
2023/07/10 11:23:46;;;;;;;6.22;3.88;;;29.80;33.40;;;;;;4936040;29;20568;-83
2023/07/10 11:26:22;;;;;;;3.75;2.90;;;29.90;22.70;;;;;;4934466;29;20027;-81
2023/07/10 11:28:51;;;;;;;5.03;3.25;;;29.70;8.90;;;;;;4934871;29;20046;-82
2023/07/10 11:31:26;;;;;;;5.40;3.70;;;29.70;9.10;;;;;;4936800;29;20032;-81
2023/07/10 11:34:02;;;;;;;5.75;3.40;;;29.50;18.10;;;;;;4936318;29;20096;-81
2023/07/10 11:36:28;;;;;;;5.10;3.00;;;29.90;4.70;;;;;;4936762;29;20374;-80
2023/07/10 11:39:09;;;;;;;5.00;3.40;;;30.50;1.00;;;;;;4934968;29;20023;-81
2023/07/10 11:41:39;;;;;;;8.45;3.40;;;30.70;1.00;;;;;;4939086;29;20467;-81
2023/07/10 11:44:21;;;;;;;4.47;2.53;;;31.20;1.00;;;;;;4918668;29;20471;-81
2023/07/10 11:47:01;;;;;;;5.25;3.22;;;31.30;1.00;;;;;;4934178;29;20035;-82
2023/07/10 11:49:46;;;;;;;7.75;3.47;;;31.80;1.00;;;;;;4935286;29;20036;-83
2023/07/10 11:52:15;;;;;;;6.05;2.33;;;31.10;1.00;;;;;;4933832;29;20047;-82
2023/07/10 11:54:47;;;;;;;4.15;2.60;;;30.60;1.00;;;;;;4936332;29;20463;-81
2023/07/10 11:57:28;;;;;;;4.05;2.20;;;30.80;1.00;;;;;;4937893;29;20034;-82
2023/07/10 12:00:06;;;;;;;5.70;2.35;;;30.90;1.00;;;;;;4933573;29;20052;-80
2023/07/10 12:02:45;;;;;;;3.45;1.92;;;31.30;1.00;;;;;;4940838;29;20039;-83
2023/07/10 12:05:30;;;;;;;3.78;1.85;;;31.40;1.00;;;;;;4934398;29;20032;-83
2023/07/10 12:08:01;;;;;;;3.38;2.35;;;31.60;1.00;;;;;;4933945;29;20038;-81
2023/07/10 12:10:31;;;;;;;5.75;2.47;;;32.10;1.00;;;;;;4913417;29;20051;-80
2023/07/10 12:13:00;;;;;;;3.95;2.42;;;32.40;1.00;;;;;;4934354;29;20038;-83
2023/07/10 12:15:27;;;;;;;2.35;1.65;;;32.00;1.00;;;;;;4934959;29;20378;-81
2023/07/10 12:17:55;;;;;;;3.45;2.20;;;32.00;1.00;;;;;;4915877;29;20070;-82
2023/07/10 12:20:29;;;;;;;4.45;1.73;;;32.00;1.00;;;;;;4934868;29;20049;-82
2023/07/10 12:23:05;;;;;;;3.17;1.77;;;31.90;1.00;;;;;;4932911;29;20467;-82
2023/07/10 12:25:31;;;;;;;2.72;1.75;;;31.80;1.00;;;;;;4934714;29;20450;-84
2023/07/10 12:28:02;;;;;;;5.28;2.30;;;32.20;1.00;;;;;;4933840;29;20371;-81
2023/07/10 12:30:30;;;;;;;2.25;1.45;;;32.10;1.00;;;;;;4935471;29;20070;-84
2023/07/10 12:32:56;;;;;;;2.95;2.08;;;31.80;1.00;;;;;;4933958;29;20043;-81
2023/07/10 12:35:34;;;;;;;3.38;1.95;;;32.00;1.00;;;;;;4913105;29;20378;-82
2023/07/10 12:38:02;;;;;;;5.65;2.85;;;31.90;1.00;;;;;;4931006;29;20031;-84
2023/07/10 12:40:30;;;;;;;3.35;2.08;;;31.90;1.00;;;;;;4934986;29;20046;-83
2023/07/10 12:43:25;;;;;;;3.22;2.03;;;31.90;1.00;;;;;;4934368;29;20039;-82
2023/07/10 12:46:11;;;;;;;3.10;2.20;;;32.40;1.00;;;;;;4931496;29;20482;-80
2023/07/10 12:48:38;;;;;;;3.92;2.30;;;32.50;1.00;;;;;;4932506;29;20479;-85
2023/07/10 12:51:06;;;;;;;3.97;2.35;;;32.20;1.00;;;;;;4934507;29;20039;-87
2023/07/10 12:53:37;;;;;;;4.10;2.20;;;32.20;1.00;;;;;;4935205;29;20483;-82
2023/07/10 12:56:18;;;;;;;4.30;2.42;;;32.00;1.00;;;;;;4933670;29;20043;-83
2023/07/10 12:58:47;;;;;;;3.72;2.28;;;32.30;1.00;;;;;;4933141;29;20035;-79
2023/07/10 13:01:21;;;;;;;3.72;1.75;;;31.70;1.00;;;;;;4933810;29;20035;-82
2023/07/10 13:04:05;;;;;;;3.90;1.95;;;31.50;1.00;;;;;;4932947;29;20031;-81